sensor_id;sensor_type;location;lat;lon;timestamp;temperature;humidity
41435;DHT22;27177;22.262;114.192;2023-06-22T00:01:20;28.10;99.90
41435;DHT22;27177;22.262;114.192;2023-06-22T00:03:48;28.10;99.90
41435;DHT22;27177;22.262;114.192;2023-06-22T00:06:15;28.10;99.90
41435;DHT22;27177;22.262;114.192;2023-06-22T00:08:42;28.10;99.90
41435;DHT22;27177;22.262;114.192;2023-06-22T00:11:09;28.20;99.90
41435;DHT22;27177;22.262;114.192;2023-06-22T00:13:35;28.10;99.90
41435;DHT22;27177;22.262;114.192;2023-06-22T00:16:03;28.20;99.90
41435;DHT22;27177;22.262;114.192;2023-06-22T00:18:29;28.20;99.90
41435;DHT22;27177;22.262;114.192;2023-06-22T00:20:57;28.30;99.90
41435;DHT22;27177;22.262;114.192;2023-06-22T00:23:27;28.30;99.90
41435;DHT22;27177;22.262;114.192;2023-06-22T00:25:54;28.30;99.90
41435;DHT22;27177;22.262;114.192;2023-06-22T00:28:20;28.40;99.90
41435;DHT22;27177;22.262;114.192;2023-06-22T00:30:49;28.40;99.90
41435;DHT22;27177;22.262;114.192;2023-06-22T00:33:17;28.40;99.90
41435;DHT22;27177;22.262;114.192;2023-06-22T00:35:44;28.40;99.90
41435;DHT22;27177;22.262;114.192;2023-06-22T00:38:11;28.40;99.90
41435;DHT22;27177;22.262;114.192;2023-06-22T00:40:38;28.50;99.90
41435;DHT22;27177;22.262;114.192;2023-06-22T00:43:05;28.60;99.90
41435;DHT22;27177;22.262;114.192;2023-06-22T00:45:32;28.70;99.90
41435;DHT22;27177;22.262;114.192;2023-06-22T00:48:00;28.80;99.90
41435;DHT22;27177;22.262;114.192;2023-06-22T00:50:32;28.90;99.90
41435;DHT22;27177;22.262;114.192;2023-06-22T00:53:07;28.90;99.90
41435;DHT22;27177;22.262;114.192;2023-06-22T00:55:46;29.00;99.90
41435;DHT22;27177;22.262;114.192;2023-06-22T00:58:14;29.00;99.90
41435;DHT22;27177;22.262;114.192;2023-06-22T01:00:41;28.90;99.90
41435;DHT22;27177;22.262;114.192;2023-06-22T01:03:08;28.90;99.90
41435;DHT22;27177;22.262;114.192;2023-06-22T01:05:35;28.90;99.90
41435;DHT22;27177;22.262;114.192;2023-06-22T01:11:09;28.80;99.90
41435;DHT22;27177;22.262;114.192;2023-06-22T01:16:34;29.00;99.90
41435;DHT22;27177;22.262;114.192;2023-06-22T01:21:51;28.90;99.90
41435;DHT22;27177;22.262;114.192;2023-06-22T01:24:27;29.00;99.90
41435;DHT22;27177;22.262;114.192;2023-06-22T01:29:43;29.00;99.90
41435;DHT22;27177;22.262;114.192;2023-06-22T01:32:11;29.10;99.90
41435;DHT22;27177;22.262;114.192;2023-06-22T01:34:39;29.10;99.90
41435;DHT22;27177;22.262;114.192;2023-06-22T01:37:07;29.20;99.90
41435;DHT22;27177;22.262;114.192;2023-06-22T01:39:35;29.20;99.90
41435;DHT22;27177;22.262;114.192;2023-06-22T01:42:03;29.20;99.90
41435;DHT22;27177;22.262;114.192;2023-06-22T01:44:31;29.30;99.90
41435;DHT22;27177;22.262;114.192;2023-06-22T01:46:59;29.40;99.90
41435;DHT22;27177;22.262;114.192;2023-06-22T01:49:26;29.40;99.90
41435;DHT22;27177;22.262;114.192;2023-06-22T01:51:53;29.30;99.90
41435;DHT22;27177;22.262;114.192;2023-06-22T01:54:20;29.20;99.90
41435;DHT22;27177;22.262;114.192;2023-06-22T01:56:47;29.40;99.90
41435;DHT22;27177;22.262;114.192;2023-06-22T02:01:47;29.60;99.90
41435;DHT22;27177;22.262;114.192;2023-06-22T02:04:24;29.60;99.90
41435;DHT22;27177;22.262;114.192;2023-06-22T02:06:56;29.80;99.90
41435;DHT22;27177;22.262;114.192;2023-06-22T02:09:26;29.80;99.90
41435;DHT22;27177;22.262;114.192;2023-06-22T02:11:56;29.70;99.90
41435;DHT22;27177;22.262;114.192;2023-06-22T02:14:24;29.70;99.90
41435;DHT22;27177;22.262;114.192;2023-06-22T02:16:52;29.70;99.90
41435;DHT22;27177;22.262;114.192;2023-06-22T02:19:23;29.60;99.90
41435;DHT22;27177;22.262;114.192;2023-06-22T02:21:50;29.60;99.90
41435;DHT22;27177;22.262;114.192;2023-06-22T02:24:17;29.70;99.90
41435;DHT22;27177;22.262;114.192;2023-06-22T02:26:44;29.90;99.90
41435;DHT22;27177;22.262;114.192;2023-06-22T02:29:12;29.90;99.90
41435;DHT22;27177;22.262;114.192;2023-06-22T02:31:39;30.00;99.90
41435;DHT22;27177;22.262;114.192;2023-06-22T02:34:05;30.10;99.90
41435;DHT22;27177;22.262;114.192;2023-06-22T02:36:33;30.00;99.90
41435;DHT22;27177;22.262;114.192;2023-06-22T02:38:59;30.10;99.90
41435;DHT22;27177;22.262;114.192;2023-06-22T02:41:28;30.00;99.90
41435;DHT22;27177;22.262;114.192;2023-06-22T02:43:54;30.20;99.90
41435;DHT22;27177;22.262;114.192;2023-06-22T02:46:21;30.20;99.90
41435;DHT22;27177;22.262;114.192;2023-06-22T02:48:48;30.10;99.90
41435;DHT22;27177;22.262;114.192;2023-06-22T02:51:14;30.00;99.90
41435;DHT22;27177;22.262;114.192;2023-06-22T02:53:41;30.00;99.90
41435;DHT22;27177;22.262;114.192;2023-06-22T02:56:10;30.00;99.90
41435;DHT22;27177;22.262;114.192;2023-06-22T02:58:38;29.90;99.90
41435;DHT22;27177;22.262;114.192;2023-06-22T03:01:06;29.80;99.90
41435;DHT22;27177;22.262;114.192;2023-06-22T03:03:33;29.90;99.90
41435;DHT22;27177;22.262;114.192;2023-06-22T03:05:59;29.90;99.90
41435;DHT22;27177;22.262;114.192;2023-06-22T03:08:29;29.80;99.90
41435;DHT22;27177;22.262;114.192;2023-06-22T03:10:56;29.60;99.90
41435;DHT22;27177;22.262;114.192;2023-06-22T03:13:23;29.60;99.90
41435;DHT22;27177;22.262;114.192;2023-06-22T03:15:50;29.50;99.90
41435;DHT22;27177;22.262;114.192;2023-06-22T03:18:17;29.60;99.90
41435;DHT22;27177;22.262;114.192;2023-06-22T03:20:44;29.60;99.90
41435;DHT22;27177;22.262;114.192;2023-06-22T03:23:10;29.50;99.90
41435;DHT22;27177;22.262;114.192;2023-06-22T03:25:37;29.30;99.90
41435;DHT22;27177;22.262;114.192;2023-06-22T03:28:04;29.20;99.90
41435;DHT22;27177;22.262;114.192;2023-06-22T03:30:30;29.10;99.90
41435;DHT22;27177;22.262;114.192;2023-06-22T03:32:57;29.10;99.90
41435;DHT22;27177;22.262;114.192;2023-06-22T03:35:24;29.00;99.90
41435;DHT22;27177;22.262;114.192;2023-06-22T03:37:51;28.90;99.90
41435;DHT22;27177;22.262;114.192;2023-06-22T03:40:17;29.00;99.90
41435;DHT22;27177;22.262;114.192;2023-06-22T03:42:44;29.10;99.90
41435;DHT22;27177;22.262;114.192;2023-06-22T03:45:11;29.20;99.90
41435;DHT22;27177;22.262;114.192;2023-06-22T03:47:37;29.40;99.90
41435;DHT22;27177;22.262;114.192;2023-06-22T03:50:04;29.40;99.90
41435;DHT22;27177;22.262;114.192;2023-06-22T03:52:32;29.40;99.90
41435;DHT22;27177;22.262;114.192;2023-06-22T03:54:58;29.40;99.90
41435;DHT22;27177;22.262;114.192;2023-06-22T03:57:25;29.60;99.90
41435;DHT22;27177;22.262;114.192;2023-06-22T03:59:53;29.70;99.90
41435;DHT22;27177;22.262;114.192;2023-06-22T04:02:20;29.90;99.90
41435;DHT22;27177;22.262;114.192;2023-06-22T04:04:47;29.90;99.90
41435;DHT22;27177;22.262;114.192;2023-06-22T04:07:14;29.90;99.90
41435;DHT22;27177;22.262;114.192;2023-06-22T04:09:40;29.90;99.90
41435;DHT22;27177;22.262;114.192;2023-06-22T04:12:07;29.90;99.90
41435;DHT22;27177;22.262;114.192;2023-06-22T04:14:34;29.80;99.90
41435;DHT22;27177;22.262;114.192;2023-06-22T04:17:01;29.70;99.90
41435;DHT22;27177;22.262;114.192;2023-06-22T04:19:28;29.60;99.90
41435;DHT22;27177;22.262;114.192;2023-06-22T04:21:55;29.50;99.90
41435;DHT22;27177;22.262;114.192;2023-06-22T04:24:21;29.50;99.90
41435;DHT22;27177;22.262;114.192;2023-06-22T04:26:48;29.50;99.90
41435;DHT22;27177;22.262;114.192;2023-06-22T04:29:19;29.50;99.90
41435;DHT22;27177;22.262;114.192;2023-06-22T04:31:45;29.50;99.90
41435;DHT22;27177;22.262;114.192;2023-06-22T04:34:16;29.40;99.90
41435;DHT22;27177;22.262;114.192;2023-06-22T04:36:43;29.40;99.90
41435;DHT22;27177;22.262;114.192;2023-06-22T04:39:11;29.50;99.90
41435;DHT22;27177;22.262;114.192;2023-06-22T04:41:39;29.50;99.90
41435;DHT22;27177;22.262;114.192;2023-06-22T04:44:09;29.70;99.90
41435;DHT22;27177;22.262;114.192;2023-06-22T04:46:37;29.90;99.90
41435;DHT22;27177;22.262;114.192;2023-06-22T04:49:08;29.90;99.90
41435;DHT22;27177;22.262;114.192;2023-06-22T04:51:44;29.90;99.90
41435;DHT22;27177;22.262;114.192;2023-06-22T04:54:11;29.90;99.90
41435;DHT22;27177;22.262;114.192;2023-06-22T04:56:38;29.90;99.90
41435;DHT22;27177;22.262;114.192;2023-06-22T04:59:07;30.00;99.90
41435;DHT22;27177;22.262;114.192;2023-06-22T05:01:34;30.20;99.90
41435;DHT22;27177;22.262;114.192;2023-06-22T05:04:01;30.30;99.90
41435;DHT22;27177;22.262;114.192;2023-06-22T05:06:29;30.30;99.90
41435;DHT22;27177;22.262;114.192;2023-06-22T05:08:56;30.40;99.90
41435;DHT22;27177;22.262;114.192;2023-06-22T05:11:27;30.60;99.90
41435;DHT22;27177;22.262;114.192;2023-06-22T05:13:54;30.40;99.90
41435;DHT22;27177;22.262;114.192;2023-06-22T05:16:21;30.50;99.90
41435;DHT22;27177;22.262;114.192;2023-06-22T05:18:54;30.60;99.90
41435;DHT22;27177;22.262;114.192;2023-06-22T05:21:24;30.60;99.90
41435;DHT22;27177;22.262;114.192;2023-06-22T05:23:52;30.70;99.90
41435;DHT22;27177;22.262;114.192;2023-06-22T05:26:20;30.80;99.90
41435;DHT22;27177;22.262;114.192;2023-06-22T05:28:47;30.90;99.90
41435;DHT22;27177;22.262;114.192;2023-06-22T05:31:17;30.90;99.90
41435;DHT22;27177;22.262;114.192;2023-06-22T05:33:46;30.90;99.90
41435;DHT22;27177;22.262;114.192;2023-06-22T05:36:13;31.00;99.90
41435;DHT22;27177;22.262;114.192;2023-06-22T05:38:40;31.10;99.90
41435;DHT22;27177;22.262;114.192;2023-06-22T05:41:08;31.10;99.90
41435;DHT22;27177;22.262;114.192;2023-06-22T05:43:34;31.10;99.90
41435;DHT22;27177;22.262;114.192;2023-06-22T05:46:04;31.10;99.90
41435;DHT22;27177;22.262;114.192;2023-06-22T05:48:31;31.10;99.90
41435;DHT22;27177;22.262;114.192;2023-06-22T05:50:58;31.10;99.90
41435;DHT22;27177;22.262;114.192;2023-06-22T05:53:25;31.10;99.90
41435;DHT22;27177;22.262;114.192;2023-06-22T05:55:52;31.00;99.90
41435;DHT22;27177;22.262;114.192;2023-06-22T05:58:19;31.10;99.90
41435;DHT22;27177;22.262;114.192;2023-06-22T06:00:45;31.00;99.90
41435;DHT22;27177;22.262;114.192;2023-06-22T06:03:13;30.90;99.90
41435;DHT22;27177;22.262;114.192;2023-06-22T06:05:43;30.70;99.90
41435;DHT22;27177;22.262;114.192;2023-06-22T06:08:11;30.70;99.90
41435;DHT22;27177;22.262;114.192;2023-06-22T06:10:38;30.60;99.90
41435;DHT22;27177;22.262;114.192;2023-06-22T06:13:05;30.50;99.90
41435;DHT22;27177;22.262;114.192;2023-06-22T06:15:34;30.50;99.90
41435;DHT22;27177;22.262;114.192;2023-06-22T06:18:00;30.20;99.90
41435;DHT22;27177;22.262;114.192;2023-06-22T06:20:30;30.10;99.90
41435;DHT22;27177;22.262;114.192;2023-06-22T06:22:57;30.00;99.90
41435;DHT22;27177;22.262;114.192;2023-06-22T06:25:24;30.10;99.90
41435;DHT22;27177;22.262;114.192;2023-06-22T06:27:52;30.10;99.90
41435;DHT22;27177;22.262;114.192;2023-06-22T06:30:21;30.10;99.90
41435;DHT22;27177;22.262;114.192;2023-06-22T06:32:49;30.00;99.90
41435;DHT22;27177;22.262;114.192;2023-06-22T06:35:16;30.00;99.90
41435;DHT22;27177;22.262;114.192;2023-06-22T06:37:44;30.00;99.90
41435;DHT22;27177;22.262;114.192;2023-06-22T06:40:15;29.90;99.90
41435;DHT22;27177;22.262;114.192;2023-06-22T06:42:44;29.90;99.90
41435;DHT22;27177;22.262;114.192;2023-06-22T06:45:12;30.00;99.90
41435;DHT22;27177;22.262;114.192;2023-06-22T06:47:40;30.00;99.90
41435;DHT22;27177;22.262;114.192;2023-06-22T06:50:07;30.20;99.90
41435;DHT22;27177;22.262;114.192;2023-06-22T06:52:34;30.30;99.90
41435;DHT22;27177;22.262;114.192;2023-06-22T06:55:01;30.30;99.90
41435;DHT22;27177;22.262;114.192;2023-06-22T06:57:31;30.40;99.90
41435;DHT22;27177;22.262;114.192;2023-06-22T06:59:58;30.60;99.90
41435;DHT22;27177;22.262;114.192;2023-06-22T07:02:26;30.70;99.90
41435;DHT22;27177;22.262;114.192;2023-06-22T07:04:54;30.80;99.90
41435;DHT22;27177;22.262;114.192;2023-06-22T07:07:24;30.80;99.90
41435;DHT22;27177;22.262;114.192;2023-06-22T07:09:51;30.70;99.90
41435;DHT22;27177;22.262;114.192;2023-06-22T07:12:17;30.60;99.90
41435;DHT22;27177;22.262;114.192;2023-06-22T07:14:44;30.60;99.90
41435;DHT22;27177;22.262;114.192;2023-06-22T07:17:11;30.50;99.90
41435;DHT22;27177;22.262;114.192;2023-06-22T07:19:37;30.50;99.90
41435;DHT22;27177;22.262;114.192;2023-06-22T07:22:05;30.50;99.90
41435;DHT22;27177;22.262;114.192;2023-06-22T07:24:31;30.60;99.90
41435;DHT22;27177;22.262;114.192;2023-06-22T07:26:58;30.40;99.90
41435;DHT22;27177;22.262;114.192;2023-06-22T07:29:25;30.30;99.90
41435;DHT22;27177;22.262;114.192;2023-06-22T07:31:53;30.20;99.90
41435;DHT22;27177;22.262;114.192;2023-06-22T07:34:20;30.20;99.90
41435;DHT22;27177;22.262;114.192;2023-06-22T07:36:47;30.10;99.90
41435;DHT22;27177;22.262;114.192;2023-06-22T07:39:15;30.10;99.90
41435;DHT22;27177;22.262;114.192;2023-06-22T07:41:42;30.00;99.90
41435;DHT22;27177;22.262;114.192;2023-06-22T07:44:09;29.70;99.90
41435;DHT22;27177;22.262;114.192;2023-06-22T07:46:35;29.60;99.90
41435;DHT22;27177;22.262;114.192;2023-06-22T07:49:02;29.50;99.90
41435;DHT22;27177;22.262;114.192;2023-06-22T07:51:29;29.50;99.90
41435;DHT22;27177;22.262;114.192;2023-06-22T07:53:56;29.50;99.90
41435;DHT22;27177;22.262;114.192;2023-06-22T07:56:22;29.40;99.90
41435;DHT22;27177;22.262;114.192;2023-06-22T07:58:49;29.40;99.90
41435;DHT22;27177;22.262;114.192;2023-06-22T08:01:16;29.30;99.90
41435;DHT22;27177;22.262;114.192;2023-06-22T08:03:45;29.30;99.90
41435;DHT22;27177;22.262;114.192;2023-06-22T08:06:12;29.40;99.90
41435;DHT22;27177;22.262;114.192;2023-06-22T08:08:39;29.50;99.90
41435;DHT22;27177;22.262;114.192;2023-06-22T08:11:06;29.40;99.90
41435;DHT22;27177;22.262;114.192;2023-06-22T08:13:32;29.30;99.90
41435;DHT22;27177;22.262;114.192;2023-06-22T08:15:59;29.30;99.90
41435;DHT22;27177;22.262;114.192;2023-06-22T08:18:26;29.30;99.90
41435;DHT22;27177;22.262;114.192;2023-06-22T08:20:53;29.30;99.90
41435;DHT22;27177;22.262;114.192;2023-06-22T08:23:20;29.50;99.90
41435;DHT22;27177;22.262;114.192;2023-06-22T08:25:46;29.70;99.90
41435;DHT22;27177;22.262;114.192;2023-06-22T08:28:14;29.70;99.90
41435;DHT22;27177;22.262;114.192;2023-06-22T08:30:41;29.60;99.90
41435;DHT22;27177;22.262;114.192;2023-06-22T08:33:07;29.50;99.90
41435;DHT22;27177;22.262;114.192;2023-06-22T08:35:34;29.40;99.90
41435;DHT22;27177;22.262;114.192;2023-06-22T08:38:01;29.30;99.90
41435;DHT22;27177;22.262;114.192;2023-06-22T08:40:28;29.30;99.90
41435;DHT22;27177;22.262;114.192;2023-06-22T08:42:55;29.40;99.90
41435;DHT22;27177;22.262;114.192;2023-06-22T08:45:22;29.50;99.90
41435;DHT22;27177;22.262;114.192;2023-06-22T08:47:49;29.60;99.90
41435;DHT22;27177;22.262;114.192;2023-06-22T08:50:16;29.90;99.90
41435;DHT22;27177;22.262;114.192;2023-06-22T08:52:42;30.20;99.90
41435;DHT22;27177;22.262;114.192;2023-06-22T08:55:10;30.00;99.90
41435;DHT22;27177;22.262;114.192;2023-06-22T08:57:37;29.90;99.90
41435;DHT22;27177;22.262;114.192;2023-06-22T09:00:09;29.80;99.90
41435;DHT22;27177;22.262;114.192;2023-06-22T09:02:43;29.70;99.90
41435;DHT22;27177;22.262;114.192;2023-06-22T09:05:10;29.50;99.90
41435;DHT22;27177;22.262;114.192;2023-06-22T09:07:37;29.40;99.90
41435;DHT22;27177;22.262;114.192;2023-06-22T09:10:04;29.30;99.90
41435;DHT22;27177;22.262;114.192;2023-06-22T09:12:31;29.20;99.90
41435;DHT22;27177;22.262;114.192;2023-06-22T09:14:59;29.20;99.90
41435;DHT22;27177;22.262;114.192;2023-06-22T09:17:27;29.20;99.90
41435;DHT22;27177;22.262;114.192;2023-06-22T09:19:54;29.10;99.90
41435;DHT22;27177;22.262;114.192;2023-06-22T09:22:21;29.30;99.90
41435;DHT22;27177;22.262;114.192;2023-06-22T09:24:47;29.50;99.90
41435;DHT22;27177;22.262;114.192;2023-06-22T09:27:14;29.50;99.90
41435;DHT22;27177;22.262;114.192;2023-06-22T09:29:41;29.30;99.90
41435;DHT22;27177;22.262;114.192;2023-06-22T09:32:10;29.20;99.90
41435;DHT22;27177;22.262;114.192;2023-06-22T09:34:40;29.10;99.90
41435;DHT22;27177;22.262;114.192;2023-06-22T09:37:07;29.00;99.90
41435;DHT22;27177;22.262;114.192;2023-06-22T09:39:34;28.90;99.90
41435;DHT22;27177;22.262;114.192;2023-06-22T09:42:00;28.80;99.90
41435;DHT22;27177;22.262;114.192;2023-06-22T09:44:27;28.80;99.90
41435;DHT22;27177;22.262;114.192;2023-06-22T09:46:54;28.70;99.90
41435;DHT22;27177;22.262;114.192;2023-06-22T09:49:21;28.70;99.90
41435;DHT22;27177;22.262;114.192;2023-06-22T09:51:47;28.70;99.90
41435;DHT22;27177;22.262;114.192;2023-06-22T09:54:16;28.70;99.90
41435;DHT22;27177;22.262;114.192;2023-06-22T09:56:42;28.70;99.90
41435;DHT22;27177;22.262;114.192;2023-06-22T09:59:09;28.60;99.90
41435;DHT22;27177;22.262;114.192;2023-06-22T10:01:36;28.60;99.90
41435;DHT22;27177;22.262;114.192;2023-06-22T10:04:05;28.50;99.90
41435;DHT22;27177;22.262;114.192;2023-06-22T10:06:32;28.50;99.90
41435;DHT22;27177;22.262;114.192;2023-06-22T10:08:59;28.50;99.90
41435;DHT22;27177;22.262;114.192;2023-06-22T10:11:25;28.40;99.90
41435;DHT22;27177;22.262;114.192;2023-06-22T10:13:56;28.40;99.90
41435;DHT22;27177;22.262;114.192;2023-06-22T10:16:29;28.40;99.90
41435;DHT22;27177;22.262;114.192;2023-06-22T10:18:56;28.40;99.90
41435;DHT22;27177;22.262;114.192;2023-06-22T10:21:23;28.40;99.90
41435;DHT22;27177;22.262;114.192;2023-06-22T10:23:50;28.40;99.90
41435;DHT22;27177;22.262;114.192;2023-06-22T10:26:17;28.40;99.90
41435;DHT22;27177;22.262;114.192;2023-06-22T10:28:43;28.30;99.90
41435;DHT22;27177;22.262;114.192;2023-06-22T10:31:10;28.30;99.90
41435;DHT22;27177;22.262;114.192;2023-06-22T10:33:37;28.30;99.90
41435;DHT22;27177;22.262;114.192;2023-06-22T10:36:04;28.30;99.90
41435;DHT22;27177;22.262;114.192;2023-06-22T10:38:30;28.30;99.90
41435;DHT22;27177;22.262;114.192;2023-06-22T10:40:57;28.20;99.90
41435;DHT22;27177;22.262;114.192;2023-06-22T10:43:24;28.20;99.90
41435;DHT22;27177;22.262;114.192;2023-06-22T10:45:50;28.20;99.90
41435;DHT22;27177;22.262;114.192;2023-06-22T10:48:17;28.20;99.90
41435;DHT22;27177;22.262;114.192;2023-06-22T10:50:44;28.20;99.90
41435;DHT22;27177;22.262;114.192;2023-06-22T10:53:11;28.20;99.90
41435;DHT22;27177;22.262;114.192;2023-06-22T10:55:37;28.10;99.90
41435;DHT22;27177;22.262;114.192;2023-06-22T10:58:04;28.10;99.90
41435;DHT22;27177;22.262;114.192;2023-06-22T11:00:31;28.10;99.90
41435;DHT22;27177;22.262;114.192;2023-06-22T11:02:57;28.10;99.90
41435;DHT22;27177;22.262;114.192;2023-06-22T11:05:24;28.00;99.90
41435;DHT22;27177;22.262;114.192;2023-06-22T11:07:51;28.00;99.90
41435;DHT22;27177;22.262;114.192;2023-06-22T11:10:18;28.00;99.90
41435;DHT22;27177;22.262;114.192;2023-06-22T11:12:45;28.10;99.90
41435;DHT22;27177;22.262;114.192;2023-06-22T11:15:11;28.00;99.90
41435;DHT22;27177;22.262;114.192;2023-06-22T11:17:38;28.00;99.90
41435;DHT22;27177;22.262;114.192;2023-06-22T11:20:06;28.00;99.90
41435;DHT22;27177;22.262;114.192;2023-06-22T11:22:42;28.00;99.90
41435;DHT22;27177;22.262;114.192;2023-06-22T11:25:09;28.00;99.90
41435;DHT22;27177;22.262;114.192;2023-06-22T11:27:38;27.90;99.90
41435;DHT22;27177;22.262;114.192;2023-06-22T11:30:05;27.90;99.90
41435;DHT22;27177;22.262;114.192;2023-06-22T11:32:32;27.90;99.90
41435;DHT22;27177;22.262;114.192;2023-06-22T11:34:58;27.90;99.90
41435;DHT22;27177;22.262;114.192;2023-06-22T11:37:25;27.90;99.90
41435;DHT22;27177;22.262;114.192;2023-06-22T11:39:52;27.90;99.90
41435;DHT22;27177;22.262;114.192;2023-06-22T11:42:21;27.90;99.90
41435;DHT22;27177;22.262;114.192;2023-06-22T11:44:49;27.90;99.90
41435;DHT22;27177;22.262;114.192;2023-06-22T11:47:16;27.90;99.90
41435;DHT22;27177;22.262;114.192;2023-06-22T11:49:45;27.90;99.90
41435;DHT22;27177;22.262;114.192;2023-06-22T11:52:12;27.80;99.90
41435;DHT22;27177;22.262;114.192;2023-06-22T11:54:39;27.80;99.90
41435;DHT22;27177;22.262;114.192;2023-06-22T11:57:05;27.80;99.90
41435;DHT22;27177;22.262;114.192;2023-06-22T11:59:32;27.80;99.90
41435;DHT22;27177;22.262;114.192;2023-06-22T12:01:59;27.80;99.90
41435;DHT22;27177;22.262;114.192;2023-06-22T12:04:26;27.80;99.90
41435;DHT22;27177;22.262;114.192;2023-06-22T12:06:52;27.70;99.90
41435;DHT22;27177;22.262;114.192;2023-06-22T12:09:19;27.80;99.90
41435;DHT22;27177;22.262;114.192;2023-06-22T12:11:46;27.80;99.90
41435;DHT22;27177;22.262;114.192;2023-06-22T12:14:13;27.80;99.90
41435;DHT22;27177;22.262;114.192;2023-06-22T12:16:40;27.80;99.90
41435;DHT22;27177;22.262;114.192;2023-06-22T12:19:06;27.80;99.90
41435;DHT22;27177;22.262;114.192;2023-06-22T12:21:33;27.70;99.90
41435;DHT22;27177;22.262;114.192;2023-06-22T12:24:00;27.70;99.90
41435;DHT22;27177;22.262;114.192;2023-06-22T12:26:26;27.70;99.90
41435;DHT22;27177;22.262;114.192;2023-06-22T12:28:53;27.70;99.90
41435;DHT22;27177;22.262;114.192;2023-06-22T12:31:20;27.70;99.90
41435;DHT22;27177;22.262;114.192;2023-06-22T12:33:46;27.70;99.90
41435;DHT22;27177;22.262;114.192;2023-06-22T12:36:13;27.70;99.90
41435;DHT22;27177;22.262;114.192;2023-06-22T12:38:40;27.80;99.90
41435;DHT22;27177;22.262;114.192;2023-06-22T12:41:07;27.70;99.90
41435;DHT22;27177;22.262;114.192;2023-06-22T12:43:33;27.70;99.90
41435;DHT22;27177;22.262;114.192;2023-06-22T12:46:00;27.70;99.90
41435;DHT22;27177;22.262;114.192;2023-06-22T12:48:27;27.70;99.90
41435;DHT22;27177;22.262;114.192;2023-06-22T12:50:54;27.80;99.90
41435;DHT22;27177;22.262;114.192;2023-06-22T12:53:21;27.80;99.90
41435;DHT22;27177;22.262;114.192;2023-06-22T12:55:49;27.70;99.90
41435;DHT22;27177;22.262;114.192;2023-06-22T12:58:16;27.70;99.90
41435;DHT22;27177;22.262;114.192;2023-06-22T13:00:43;27.70;99.90
41435;DHT22;27177;22.262;114.192;2023-06-22T13:03:09;27.60;99.90
41435;DHT22;27177;22.262;114.192;2023-06-22T13:05:36;27.60;99.90
41435;DHT22;27177;22.262;114.192;2023-06-22T13:08:04;27.60;99.90
41435;DHT22;27177;22.262;114.192;2023-06-22T13:10:31;27.60;99.90
41435;DHT22;27177;22.262;114.192;2023-06-22T13:12:58;27.60;99.90
41435;DHT22;27177;22.262;114.192;2023-06-22T13:15:27;27.60;99.90
41435;DHT22;27177;22.262;114.192;2023-06-22T13:17:55;27.60;99.90
41435;DHT22;27177;22.262;114.192;2023-06-22T13:20:21;27.60;99.90
41435;DHT22;27177;22.262;114.192;2023-06-22T13:22:48;27.60;99.90
41435;DHT22;27177;22.262;114.192;2023-06-22T13:25:15;27.60;99.90
41435;DHT22;27177;22.262;114.192;2023-06-22T13:27:45;27.60;99.90
41435;DHT22;27177;22.262;114.192;2023-06-22T13:30:12;27.60;99.90
41435;DHT22;27177;22.262;114.192;2023-06-22T13:32:39;27.60;99.90
41435;DHT22;27177;22.262;114.192;2023-06-22T13:35:09;27.60;99.90
41435;DHT22;27177;22.262;114.192;2023-06-22T13:37:35;27.60;99.90
41435;DHT22;27177;22.262;114.192;2023-06-22T13:40:03;27.70;99.90
41435;DHT22;27177;22.262;114.192;2023-06-22T13:42:33;27.70;99.90
41435;DHT22;27177;22.262;114.192;2023-06-22T13:44:59;27.70;99.90
41435;DHT22;27177;22.262;114.192;2023-06-22T13:47:26;27.70;99.90
41435;DHT22;27177;22.262;114.192;2023-06-22T13:49:54;27.70;99.90
41435;DHT22;27177;22.262;114.192;2023-06-22T13:52:20;27.70;99.90
41435;DHT22;27177;22.262;114.192;2023-06-22T13:54:47;27.70;99.90
41435;DHT22;27177;22.262;114.192;2023-06-22T13:57:14;27.60;99.90
41435;DHT22;27177;22.262;114.192;2023-06-22T13:59:41;27.60;99.90
41435;DHT22;27177;22.262;114.192;2023-06-22T14:02:08;27.60;99.90
41435;DHT22;27177;22.262;114.192;2023-06-22T14:04:34;27.60;99.90
41435;DHT22;27177;22.262;114.192;2023-06-22T14:07:01;27.50;99.90
41435;DHT22;27177;22.262;114.192;2023-06-22T14:09:28;27.50;99.90
41435;DHT22;27177;22.262;114.192;2023-06-22T14:11:55;27.50;99.90
41435;DHT22;27177;22.262;114.192;2023-06-22T14:14:22;27.50;99.90
41435;DHT22;27177;22.262;114.192;2023-06-22T14:16:51;27.50;99.90
41435;DHT22;27177;22.262;114.192;2023-06-22T14:19:18;27.50;99.90
41435;DHT22;27177;22.262;114.192;2023-06-22T14:21:45;27.50;99.90
41435;DHT22;27177;22.262;114.192;2023-06-22T14:24:11;27.40;99.90
41435;DHT22;27177;22.262;114.192;2023-06-22T14:26:38;27.50;99.90
41435;DHT22;27177;22.262;114.192;2023-06-22T14:29:05;27.40;99.90
41435;DHT22;27177;22.262;114.192;2023-06-22T14:31:32;27.50;99.90
41435;DHT22;27177;22.262;114.192;2023-06-22T14:33:59;27.50;99.90
41435;DHT22;27177;22.262;114.192;2023-06-22T14:36:29;27.50;99.90
41435;DHT22;27177;22.262;114.192;2023-06-22T14:38:56;27.50;99.90
41435;DHT22;27177;22.262;114.192;2023-06-22T14:41:23;27.50;99.90
41435;DHT22;27177;22.262;114.192;2023-06-22T14:43:52;27.50;99.90
41435;DHT22;27177;22.262;114.192;2023-06-22T14:46:19;27.50;99.90
41435;DHT22;27177;22.262;114.192;2023-06-22T14:48:46;27.50;99.90
41435;DHT22;27177;22.262;114.192;2023-06-22T14:51:13;27.50;99.90
41435;DHT22;27177;22.262;114.192;2023-06-22T14:53:41;27.50;99.90
41435;DHT22;27177;22.262;114.192;2023-06-22T14:56:08;27.50;99.90
41435;DHT22;27177;22.262;114.192;2023-06-22T14:58:35;27.50;99.90
41435;DHT22;27177;22.262;114.192;2023-06-22T15:01:04;27.50;99.90
41435;DHT22;27177;22.262;114.192;2023-06-22T15:03:35;27.50;99.90
41435;DHT22;27177;22.262;114.192;2023-06-22T15:06:02;27.60;99.90
41435;DHT22;27177;22.262;114.192;2023-06-22T15:08:30;27.60;99.90
41435;DHT22;27177;22.262;114.192;2023-06-22T15:10:59;27.50;99.90
41435;DHT22;27177;22.262;114.192;2023-06-22T15:13:30;27.60;99.90
41435;DHT22;27177;22.262;114.192;2023-06-22T15:16:01;27.50;99.90
41435;DHT22;27177;22.262;114.192;2023-06-22T15:18:29;27.50;99.90